Time;durP1;ratioP1;P1;durP2;ratioP2;P2;SDS_P1;SDS_P2;PMS_P1;PMS_P2;Temp;Humidity;BMP_temperature;BMP_pressure;BME280_temperature;BME280_humidity;BME280_pressure;Samples;Min_cycle;Max_cycle;Signal;HPM_P1;HPM_P2
2023/01/22 00:04:31;;;;;;;9.40;4.22;;;1.10;99.90;;;;;;9991212;28;20010;-60
2023/01/22 00:09:22;;;;;;;5.13;3.03;;;1.10;99.90;;;;;;9982941;28;20057;-60
2023/01/22 00:14:12;;;;;;;10.32;4.03;;;1.20;99.90;;;;;;9991087;28;20109;-67
2023/01/22 00:19:03;;;;;;;7.82;4.00;;;1.20;99.90;;;;;;9982905;28;20121;-60
2023/01/22 00:23:54;;;;;;;9.77;4.40;;;1.20;99.90;;;;;;9982853;28;20077;-59
2023/01/22 00:28:44;;;;;;;11.48;5.20;;;1.10;99.90;;;;;;9981897;28;20037;-61
2023/01/22 00:33:36;;;;;;;12.55;5.25;;;1.00;99.90;;;;;;9982816;28;20159;-60
2023/01/22 00:38:27;;;;;;;7.32;3.65;;;1.00;99.90;;;;;;9982509;28;20092;-60
2023/01/22 00:43:18;;;;;;;8.57;4.60;;;0.90;99.90;;;;;;9981803;28;20038;-62
2023/01/22 00:48:09;;;;;;;7.22;3.63;;;0.90;99.90;;;;;;9983172;28;20034;-60
2023/01/22 00:52:59;;;;;;;12.10;6.07;;;0.90;99.90;;;;;;9982249;28;20034;-60
2023/01/22 00:57:50;;;;;;;11.18;5.68;;;0.80;99.90;;;;;;9981132;28;20389;-60
2023/01/22 01:07:50;;;;;;;9.63;3.45;;;0.70;99.90;;;;;;9979760;28;20080;-60
2023/01/22 01:12:41;;;;;;;6.88;4.50;;;0.80;99.90;;;;;;9981040;28;20535;-63
2023/01/22 01:17:31;;;;;;;8.85;3.33;;;0.80;99.90;;;;;;9979746;28;20026;-62
2023/01/22 01:22:22;;;;;;;9.23;4.82;;;0.90;99.90;;;;;;9980478;28;20429;-59
2023/01/22 01:27:13;;;;;;;9.07;3.90;;;0.80;99.90;;;;;;9980536;28;20031;-59
2023/01/22 01:32:03;;;;;;;8.98;3.97;;;0.90;99.90;;;;;;9980206;28;20540;-61
2023/01/22 01:36:54;;;;;;;10.15;4.88;;;0.90;99.90;;;;;;9979880;28;20398;-60
2023/01/22 01:41:45;;;;;;;7.20;3.30;;;0.90;99.90;;;;;;9979933;28;20527;-59
2023/01/22 01:46:42;;;;;;;11.70;3.90;;;0.90;99.90;;;;;;9979848;28;20573;-63
2023/01/22 01:51:35;;;;;;;7.72;4.05;;;0.90;99.90;;;;;;9979460;28;20779;-60
2023/01/22 01:56:32;;;;;;;6.82;3.55;;;0.80;99.90;;;;;;9978837;28;20074;-59
2023/01/22 02:01:23;;;;;;;10.00;4.35;;;1.00;99.90;;;;;;9979369;28;20702;-59
2023/01/22 02:06:16;;;;;;;5.22;3.55;;;0.90;99.90;;;;;;9970296;28;20276;-60
2023/01/22 02:11:07;;;;;;;6.75;3.13;;;0.90;99.90;;;;;;9978541;28;20452;-60
2023/01/22 02:15:58;;;;;;;11.07;3.97;;;1.00;99.90;;;;;;9967924;28;20028;-60
2023/01/22 02:20:58;;;;;;;9.32;3.38;;;1.00;99.90;;;;;;9978250;28;20430;-59
2023/01/22 02:25:48;;;;;;;8.48;3.70;;;0.90;99.90;;;;;;9978842;28;20026;-59
2023/01/22 02:30:40;;;;;;;8.10;3.90;;;0.90;99.90;;;;;;9975475;28;20046;-61
2023/01/22 02:35:30;;;;;;;5.90;3.50;;;0.90;99.90;;;;;;9979757;28;20030;-61
2023/01/22 02:40:21;;;;;;;10.48;4.57;;;0.80;99.90;;;;;;9982651;28;20026;-61
2023/01/22 02:45:12;;;;;;;8.52;4.30;;;0.80;99.90;;;;;;9977658;28;20069;-60
2023/01/22 02:50:03;;;;;;;11.35;4.22;;;0.80;99.90;;;;;;9977268;28;20046;-61
2023/01/22 02:54:54;;;;;;;7.85;3.50;;;0.90;99.90;;;;;;9968162;28;20091;-61
2023/01/22 02:59:44;;;;;;;10.15;3.88;;;1.00;99.90;;;;;;9974439;28;20030;-61
2023/01/22 03:04:35;;;;;;;9.02;5.82;;;1.10;99.90;;;;;;9976828;28;20022;-64
2023/01/22 03:09:26;;;;;;;8.52;4.68;;;0.90;99.90;;;;;;9960681;28;20141;-61
2023/01/22 03:24:35;;;;;;;10.55;4.30;;;0.90;99.90;;;;;;9977592;28;20527;-60
2023/01/22 03:29:26;;;;;;;10.07;4.95;;;0.90;99.90;;;;;;9978241;28;20049;-60
2023/01/22 03:34:18;;;;;;;7.63;4.18;;;0.90;99.90;;;;;;9984491;28;20098;-60
2023/01/22 03:39:10;;;;;;;8.00;3.83;;;1.00;99.90;;;;;;9983851;28;20513;-60
2023/01/22 03:44:02;;;;;;;10.27;4.10;;;0.90;99.90;;;;;;9984271;28;20050;-60
2023/01/22 03:48:53;;;;;;;11.40;4.50;;;0.90;99.90;;;;;;9972348;28;20038;-60
2023/01/22 03:53:44;;;;;;;8.63;4.13;;;1.00;99.90;;;;;;9992878;28;20026;-59
2023/01/22 03:58:35;;;;;;;9.98;4.68;;;1.10;99.90;;;;;;9983036;28;20350;-60
2023/01/22 04:03:27;;;;;;;9.82;4.28;;;1.10;99.90;;;;;;9982354;28;20053;-60
2023/01/22 04:08:18;;;;;;;9.55;3.75;;;1.20;99.90;;;;;;9986511;28;20250;-60
2023/01/22 04:13:09;;;;;;;10.35;5.07;;;1.10;99.90;;;;;;9982895;28;20413;-60
2023/01/22 04:17:59;;;;;;;6.47;3.50;;;1.00;99.90;;;;;;9987006;28;20030;-60
2023/01/22 04:22:50;;;;;;;9.15;4.05;;;1.10;99.90;;;;;;9971518;28;20033;-58
2023/01/22 04:27:43;;;;;;;8.65;3.55;;;1.00;99.90;;;;;;9982660;28;20041;-59
2023/01/22 04:32:34;;;;;;;7.93;4.65;;;1.00;99.90;;;;;;9982106;28;20051;-59
2023/01/22 04:37:24;;;;;;;8.68;3.97;;;1.20;99.90;;;;;;9982206;28;20401;-60
2023/01/22 04:42:15;;;;;;;8.90;3.65;;;1.10;99.90;;;;;;9982085;28;20046;-61
2023/01/22 04:47:06;;;;;;;11.25;4.30;;;1.20;99.90;;;;;;9981348;28;20034;-60
2023/01/22 04:51:57;;;;;;;7.30;3.45;;;1.20;99.90;;;;;;9982119;28;20030;-62
2023/01/22 04:56:47;;;;;;;7.60;3.47;;;1.20;99.90;;;;;;9981567;28;20038;-60
2023/01/22 05:01:38;;;;;;;6.63;3.47;;;1.30;99.90;;;;;;9982011;28;20443;-60
2023/01/22 05:06:29;;;;;;;8.60;4.05;;;1.40;99.90;;;;;;9973864;28;20026;-60
2023/01/22 05:11:20;;;;;;;8.10;3.63;;;1.30;99.90;;;;;;9981436;28;20057;-60
2023/01/22 05:16:10;;;;;;;3.88;2.55;;;1.30;99.90;;;;;;9985785;28;20033;-60
2023/01/22 05:21:01;;;;;;;7.57;3.53;;;1.30;99.90;;;;;;9981691;28;20169;-60
2023/01/22 05:25:52;;;;;;;9.88;3.85;;;1.30;99.90;;;;;;9971389;28;20022;-60
2023/01/22 05:30:43;;;;;;;11.68;3.83;;;1.30;99.90;;;;;;9980606;28;20038;-60
2023/01/22 05:35:33;;;;;;;6.38;3.30;;;1.30;99.90;;;;;;9980398;28;20409;-61
2023/01/22 05:40:24;;;;;;;10.20;4.93;;;1.30;99.90;;;;;;9979634;28;20488;-60
2023/01/22 05:45:15;;;;;;;7.25;3.22;;;1.30;99.90;;;;;;9963750;28;20060;-60
2023/01/22 05:50:06;;;;;;;8.57;4.13;;;1.30;99.90;;;;;;9979587;28;20237;-61
2023/01/22 05:54:58;;;;;;;10.02;4.03;;;1.40;99.90;;;;;;9970512;28;20022;-60
2023/01/22 05:59:49;;;;;;;6.85;2.97;;;1.20;99.90;;;;;;9978441;28;20406;-61
2023/01/22 06:04:39;;;;;;;7.97;3.92;;;1.20;99.90;;;;;;9977050;28;20038;-60
2023/01/22 06:09:30;;;;;;;7.57;3.15;;;1.20;99.90;;;;;;9981582;28;20035;-59
2023/01/22 06:14:21;;;;;;;10.00;3.55;;;1.20;99.90;;;;;;9977333;28;20034;-60
2023/01/22 06:19:11;;;;;;;6.45;3.45;;;1.30;99.90;;;;;;9978980;28;20045;-63
2023/01/22 06:24:02;;;;;;;4.63;2.80;;;1.30;99.90;;;;;;9979421;28;20029;-61
2023/01/22 06:28:54;;;;;;;5.70;2.95;;;1.40;99.90;;;;;;9977906;28;20424;-62
2023/01/22 06:33:44;;;;;;;10.45;2.85;;;1.40;99.90;;;;;;9978236;28;20101;-63
2023/01/22 06:38:36;;;;;;;6.78;3.60;;;1.40;99.90;;;;;;9978554;28;20129;-60
2023/01/22 06:43:27;;;;;;;6.68;2.83;;;1.50;99.90;;;;;;9976820;28;20101;-63
2023/01/22 06:48:18;;;;;;;6.45;2.88;;;1.50;99.90;;;;;;9975107;28;20055;-61
2023/01/22 06:53:09;;;;;;;6.03;3.72;;;1.40;99.90;;;;;;9977465;28;20166;-63
2023/01/22 06:57:59;;;;;;;8.80;4.00;;;1.40;99.90;;;;;;9976605;28;20390;-61
2023/01/22 07:02:51;;;;;;;9.35;4.13;;;1.40;99.90;;;;;;9980436;28;20454;-62
2023/01/22 07:07:42;;;;;;;8.68;3.83;;;1.40;99.90;;;;;;9976713;28;20113;-65
2023/01/22 07:12:33;;;;;;;6.07;3.03;;;1.50;99.90;;;;;;9962127;28;20042;-62
2023/01/22 07:17:23;;;;;;;7.05;3.78;;;1.50;99.90;;;;;;9982471;28;20022;-63
2023/01/22 07:22:14;;;;;;;5.38;2.53;;;1.50;99.90;;;;;;9978704;28;20421;-68
2023/01/22 07:27:05;;;;;;;7.45;4.30;;;1.40;99.90;;;;;;9977517;28;20030;-63
2023/01/22 07:31:55;;;;;;;9.30;4.03;;;1.50;99.90;;;;;;9979787;28;20046;-67
2023/01/22 07:36:46;;;;;;;6.50;3.22;;;1.50;99.90;;;;;;9983947;28;20396;-70
2023/01/22 07:41:36;;;;;;;8.20;3.58;;;1.50;99.90;;;;;;9979161;28;20095;-67
2023/01/22 07:46:27;;;;;;;8.27;3.80;;;1.50;99.90;;;;;;9977374;28;20030;-65
2023/01/22 07:51:18;;;;;;;11.60;4.20;;;1.40;99.90;;;;;;9976941;28;20030;-64
2023/01/22 07:56:09;;;;;;;8.77;4.47;;;1.40;99.90;;;;;;9974851;28;20084;-70
2023/01/22 08:01:03;;;;;;;11.07;4.65;;;1.40;99.90;;;;;;9976788;28;20109;-64
2023/01/22 08:05:55;;;;;;;9.70;4.38;;;1.50;99.90;;;;;;9977052;28;20331;-68
2023/01/22 08:10:46;;;;;;;10.30;4.53;;;1.60;99.90;;;;;;9961294;28;20096;-61
2023/01/22 08:15:37;;;;;;;13.25;5.82;;;1.50;99.90;;;;;;9982353;28;20022;-66
2023/01/22 08:20:28;;;;;;;10.18;5.30;;;1.50;99.90;;;;;;9983712;28;20076;-61
2023/01/22 08:25:19;;;;;;;11.18;6.00;;;1.60;99.90;;;;;;9985160;28;20405;-64
2023/01/22 08:30:10;;;;;;;12.43;4.88;;;1.60;99.90;;;;;;9983799;28;20049;-66
2023/01/22 08:35:00;;;;;;;6.65;3.72;;;1.60;99.90;;;;;;9983379;28;20030;-61
2023/01/22 08:39:51;;;;;;;7.30;3.90;;;1.70;99.90;;;;;;9997064;28;20035;-63
2023/01/22 08:44:42;;;;;;;6.63;4.13;;;1.80;99.90;;;;;;9982377;28;20043;-63
2023/01/22 08:49:32;;;;;;;7.78;3.63;;;1.80;99.90;;;;;;9967827;28;20046;-65
2023/01/22 08:54:25;;;;;;;8.27;4.10;;;1.80;99.90;;;;;;9982144;28;20023;-67
2023/01/22 08:59:15;;;;;;;10.38;4.30;;;2.00;99.90;;;;;;9989734;28;20022;-67
2023/01/22 09:04:07;;;;;;;7.32;4.38;;;2.10;99.90;;;;;;9982450;28;20030;-64
2023/01/22 09:09:00;;;;;;;9.32;4.78;;;2.20;99.90;;;;;;9981207;28;20085;-63
2023/01/22 09:13:53;;;;;;;9.52;3.67;;;2.10;99.90;;;;;;9983438;28;20035;-66
2023/01/22 09:18:44;;;;;;;7.07;4.43;;;2.10;99.90;;;;;;9983867;28;20031;-65
2023/01/22 09:23:35;;;;;;;8.88;4.43;;;2.10;99.90;;;;;;9981318;28;20033;-62
2023/01/22 09:28:25;;;;;;;7.88;4.10;;;2.20;99.90;;;;;;9979715;28;20068;-63
2023/01/22 09:33:16;;;;;;;6.90;4.30;;;2.20;99.90;;;;;;9981190;28;20140;-60
2023/01/22 09:38:11;;;;;;;6.90;4.18;;;2.20;99.90;;;;;;9980256;28;20034;-60
2023/01/22 09:43:23;;;;;;;5.72;4.03;;;2.10;99.90;;;;;;9980004;28;20051;-62
2023/01/22 09:48:17;;;;;;;10.73;3.90;;;2.20;99.90;;;;;;9980055;28;20142;-63
2023/01/22 09:53:12;;;;;;;11.75;3.75;;;2.20;99.90;;;;;;9980103;28;20560;-60
2023/01/22 09:58:08;;;;;;;7.27;4.63;;;2.30;99.90;;;;;;9979557;28;20030;-62
2023/01/22 10:03:02;;;;;;;9.00;4.07;;;2.30;99.90;;;;;;9980252;28;20393;-62
2023/01/22 10:08:11;;;;;;;5.60;3.15;;;2.30;99.90;;;;;;9979088;28;20114;-61
2023/01/22 10:13:24;;;;;;;5.95;4.07;;;2.40;99.90;;;;;;9979006;28;20042;-60
2023/01/22 10:18:45;;;;;;;11.38;5.30;;;2.50;99.90;;;;;;9982636;28;20068;-63
2023/01/22 10:23:36;;;;;;;7.13;4.28;;;2.60;99.90;;;;;;9978744;28;20085;-59
2023/01/22 10:28:27;;;;;;;7.95;3.67;;;2.70;99.90;;;;;;9978979;28;20358;-60
2023/01/22 10:33:22;;;;;;;7.47;4.07;;;2.90;99.90;;;;;;9979024;28;20034;-60
2023/01/22 10:38:26;;;;;;;11.60;4.53;;;2.90;99.90;;;;;;9977864;28;20428;-61
2023/01/22 10:43:16;;;;;;;10.75;4.75;;;2.80;99.90;;;;;;9978083;28;20092;-60
2023/01/22 10:48:16;;;;;;;3.83;2.75;;;2.80;99.90;;;;;;9977769;28;20077;-62
2023/01/22 10:53:33;;;;;;;5.72;3.40;;;2.80;99.90;;;;;;9977034;28;20041;-60
2023/01/22 10:58:29;;;;;;;4.45;2.35;;;2.90;99.90;;;;;;9988573;28;20089;-61
2023/01/22 11:03:22;;;;;;;4.97;2.88;;;3.00;99.90;;;;;;9977732;28;20214;-61
2023/01/22 11:08:18;;;;;;;6.00;3.05;;;3.00;99.90;;;;;;9977309;28;20023;-62
2023/01/22 11:13:37;;;;;;;5.18;2.67;;;3.00;99.90;;;;;;9977259;28;20383;-62
2023/01/22 11:18:34;;;;;;;5.35;3.00;;;2.90;99.90;;;;;;9977128;28;20046;-62
2023/01/22 11:24:03;;;;;;;4.25;3.33;;;3.00;99.90;;;;;;9984321;28;20025;-60
2023/01/22 11:29:13;;;;;;;4.03;2.33;;;2.90;99.90;;;;;;9977491;28;20181;-61
2023/01/22 11:34:25;;;;;;;3.83;2.50;;;2.90;99.90;;;;;;9978289;28;20045;-60
2023/01/22 11:39:46;;;;;;;4.65;2.70;;;2.90;99.90;;;;;;9976448;28;20070;-60
2023/01/22 11:44:48;;;;;;;3.13;2.38;;;2.80;99.90;;;;;;9964615;28;20104;-59
2023/01/22 11:49:51;;;;;;;4.13;2.67;;;2.60;99.90;;;;;;9978972;28;20093;-60
2023/01/22 11:54:51;;;;;;;3.70;2.60;;;2.60;99.90;;;;;;9984543;28;20118;-60
2023/01/22 11:59:59;;;;;;;3.22;2.40;;;2.60;99.90;;;;;;9983959;28;20373;-59
2023/01/22 12:05:15;;;;;;;5.13;2.50;;;2.70;99.90;;;;;;9984400;28;20173;-61
2023/01/22 12:10:12;;;;;;;4.18;2.47;;;2.70;99.90;;;;;;9982026;28;20042;-60
2023/01/22 12:15:12;;;;;;;3.53;2.47;;;2.70;99.90;;;;;;9987083;28;20469;-61
2023/01/22 12:20:28;;;;;;;3.53;2.35;;;2.70;99.90;;;;;;9983034;28;20520;-60
2023/01/22 12:25:37;;;;;;;4.55;2.67;;;2.70;99.90;;;;;;9990771;28;20018;-62
2023/01/22 12:31:03;;;;;;;4.25;2.45;;;2.70;99.90;;;;;;9982578;28;20116;-61
2023/01/22 12:35:57;;;;;;;6.28;2.88;;;2.70;99.90;;;;;;9981913;28;20401;-61
2023/01/22 12:40:47;;;;;;;5.15;2.75;;;2.70;99.90;;;;;;9982859;28;20058;-59
2023/01/22 12:46:03;;;;;;;4.97;2.90;;;2.80;99.90;;;;;;9981699;28;20026;-62
2023/01/22 12:50:55;;;;;;;5.03;2.90;;;2.80;99.90;;;;;;9975340;28;20041;-62
2023/01/22 12:56:06;;;;;;;5.80;2.80;;;2.90;99.90;;;;;;9979815;28;20585;-63
2023/01/22 13:01:12;;;;;;;5.47;3.67;;;2.90;99.90;;;;;;10003047;28;20026;-60
2023/01/22 13:06:21;;;;;;;4.47;3.27;;;2.90;99.90;;;;;;9981760;28;20026;-62
2023/01/22 13:11:33;;;;;;;5.93;3.38;;;3.00;99.90;;;;;;9981687;28;20313;-61
2023/01/22 13:16:33;;;;;;;5.57;3.45;;;3.10;99.90;;;;;;9984783;28;20030;-62
2023/01/22 13:21:27;;;;;;;4.38;2.50;;;3.00;99.90;;;;;;9964886;28;20034;-61
2023/01/22 13:26:21;;;;;;;5.07;3.70;;;2.90;99.90;;;;;;9980770;28;20030;-62
2023/01/22 13:31:16;;;;;;;4.18;2.80;;;2.90;99.90;;;;;;9980508;28;20393;-60
2023/01/22 13:36:09;;;;;;;5.65;3.83;;;3.10;99.90;;;;;;9981388;28;20101;-61
2023/01/22 13:41:09;;;;;;;7.63;3.80;;;3.00;99.90;;;;;;9980475;28;20065;-61
2023/01/22 13:46:00;;;;;;;4.35;2.88;;;3.20;99.90;;;;;;9979668;28;20045;-60
2023/01/22 13:51:01;;;;;;;4.40;2.67;;;3.10;99.90;;;;;;9968143;28;20527;-62
2023/01/22 13:55:52;;;;;;;6.78;3.05;;;3.10;99.90;;;;;;9979745;28;20035;-61
2023/01/22 14:00:51;;;;;;;3.95;2.55;;;3.10;99.90;;;;;;9979860;28;20038;-60
2023/01/22 14:05:42;;;;;;;4.07;2.47;;;3.00;99.90;;;;;;9966509;28;20428;-60
2023/01/22 14:10:33;;;;;;;6.45;2.88;;;3.00;99.90;;;;;;9979479;28;20046;-61
2023/01/22 14:15:23;;;;;;;5.30;2.97;;;3.00;99.90;;;;;;9983182;28;20038;-61
2023/01/22 14:20:14;;;;;;;4.95;2.95;;;3.00;99.90;;;;;;9979265;28;20022;-60
2023/01/22 14:25:05;;;;;;;4.28;2.72;;;3.00;99.90;;;;;;9974470;28;20065;-63
2023/01/22 14:29:56;;;;;;;5.32;2.83;;;3.10;99.90;;;;;;9978832;28;20349;-62
2023/01/22 14:34:47;;;;;;;4.65;3.03;;;3.10;99.90;;;;;;9978740;28;20033;-62
2023/01/22 14:39:37;;;;;;;4.88;2.58;;;3.10;99.90;;;;;;9978472;28;20022;-61
2023/01/22 14:44:29;;;;;;;4.97;2.60;;;3.10;99.90;;;;;;9977164;28;20592;-60
2023/01/22 14:49:19;;;;;;;3.00;2.38;;;3.10;99.90;;;;;;9969899;28;20259;-60
2023/01/22 14:54:10;;;;;;;6.18;3.03;;;3.20;99.90;;;;;;9976692;28;20265;-61
2023/01/22 14:59:01;;;;;;;7.30;3.35;;;3.10;99.90;;;;;;9976889;28;20176;-61
2023/01/22 15:03:52;;;;;;;4.30;2.95;;;3.10;99.90;;;;;;9965237;28;20129;-62
2023/01/22 15:08:43;;;;;;;7.10;3.42;;;3.10;99.90;;;;;;9976507;28;20444;-61
2023/01/22 15:13:34;;;;;;;3.13;2.22;;;3.00;99.90;;;;;;9976860;28;20085;-60
2023/01/22 15:18:26;;;;;;;5.50;3.10;;;3.00;99.90;;;;;;9986231;28;20015;-63
2023/01/22 15:23:16;;;;;;;4.32;3.00;;;3.00;99.90;;;;;;9977630;28;20045;-61
2023/01/22 15:28:07;;;;;;;5.85;2.70;;;3.10;99.90;;;;;;9982570;28;20026;-61
2023/01/22 15:32:58;;;;;;;5.65;2.85;;;3.00;99.90;;;;;;9985182;28;20046;-61
2023/01/22 15:37:48;;;;;;;2.70;1.90;;;3.00;99.90;;;;;;9992119;28;20026;-61
2023/01/22 15:42:39;;;;;;;4.60;2.83;;;2.90;99.90;;;;;;9984299;28;20046;-62
2023/01/22 15:47:30;;;;;;;6.35;3.17;;;2.90;99.90;;;;;;9970659;28;20493;-62
2023/01/22 15:52:20;;;;;;;4.53;3.33;;;2.80;99.90;;;;;;9984926;28;20503;-62
2023/01/22 15:57:12;;;;;;;5.07;2.75;;;2.90;99.90;;;;;;9984006;28;20070;-61
2023/01/22 16:02:03;;;;;;;5.97;2.63;;;2.90;99.90;;;;;;9983483;28;20030;-64
2023/01/22 16:06:54;;;;;;;4.78;2.97;;;2.80;99.90;;;;;;9984614;28;20033;-62
2023/01/22 16:11:44;;;;;;;5.45;3.25;;;2.80;99.90;;;;;;9984492;28;20177;-61
2023/01/22 16:16:36;;;;;;;4.18;2.88;;;2.80;99.90;;;;;;9987731;28;20022;-61
2023/01/22 16:21:28;;;;;;;4.13;3.00;;;2.70;99.90;;;;;;9983199;28;20034;-61
2023/01/22 16:26:21;;;;;;;3.53;2.42;;;2.60;99.90;;;;;;9982970;28;20026;-63
2023/01/22 16:31:17;;;;;;;4.75;2.50;;;2.60;99.90;;;;;;9976000;28;20042;-61
2023/01/22 16:36:11;;;;;;;4.32;2.45;;;2.70;99.90;;;;;;9979733;28;20023;-61
2023/01/22 16:41:17;;;;;;;3.67;2.53;;;2.70;99.90;;;;;;9972669;28;20115;-61
2023/01/22 16:46:10;;;;;;;4.30;2.78;;;2.70;99.90;;;;;;9982904;28;20061;-66
2023/01/22 16:51:01;;;;;;;6.18;3.15;;;2.70;99.90;;;;;;9985248;28;20527;-60
2023/01/22 16:55:52;;;;;;;7.55;3.08;;;2.70;99.90;;;;;;9981934;28;20022;-63
2023/01/22 17:00:43;;;;;;;6.07;3.08;;;2.80;99.90;;;;;;9982019;28;20062;-62
2023/01/22 17:05:33;;;;;;;6.47;3.35;;;2.80;99.90;;;;;;9983459;28;20495;-65
2023/01/22 17:10:24;;;;;;;6.60;3.45;;;2.80;99.90;;;;;;9983954;28;20030;-65
2023/01/22 17:15:15;;;;;;;4.93;2.92;;;2.80;99.90;;;;;;9976765;28;20403;-71
2023/01/22 17:20:06;;;;;;;4.68;3.00;;;2.70;99.90;;;;;;9982719;28;20354;-61
2023/01/22 17:29:57;;;;;;;5.65;2.42;;;2.70;99.90;;;;;;11138256;22;20100;-65
2023/01/22 17:34:47;;;;;;;4.97;3.00;;;2.70;99.90;;;;;;10092960;28;20033;-66
2023/01/22 17:39:39;;;;;;;6.88;3.35;;;2.70;99.90;;;;;;10093619;28;20114;-70
2023/01/22 17:48:06;;;;;;;9.27;4.72;;;2.80;99.90;;;;;;10259241;27;20115;-64
2023/01/22 17:52:56;;;;;;;9.10;4.60;;;2.80;99.90;;;;;;10225884;27;20039;-64
2023/01/22 17:57:47;;;;;;;10.98;4.40;;;2.70;99.90;;;;;;10205163;28;20023;-68
2023/01/22 18:02:38;;;;;;;16.85;8.93;;;2.70;99.90;;;;;;10231783;27;20020;-67
2023/01/22 18:07:28;;;;;;;16.00;7.95;;;2.70;99.90;;;;;;10237466;28;20519;-68
2023/01/22 18:12:19;;;;;;;8.75;4.93;;;2.70;99.90;;;;;;10234251;28;20015;-65
2023/01/22 18:17:09;;;;;;;7.32;5.03;;;2.60;99.90;;;;;;10228598;28;20032;-60
2023/01/22 18:22:00;;;;;;;7.75;3.85;;;2.60;99.90;;;;;;10225057;27;20034;-64
2023/01/22 18:26:53;;;;;;;6.00;4.00;;;2.60;99.90;;;;;;10213688;28;20042;-67
2023/01/22 18:31:43;;;;;;;6.88;3.67;;;2.60;99.90;;;;;;10213609;27;20028;-62
2023/01/22 18:36:36;;;;;;;5.13;3.22;;;2.60;99.90;;;;;;10212908;28;20409;-63
2023/01/22 18:41:28;;;;;;;5.63;3.40;;;2.60;99.90;;;;;;10209031;27;20491;-63
2023/01/22 18:46:18;;;;;;;7.70;4.25;;;2.70;99.90;;;;;;10234751;27;20083;-63
2023/01/22 18:51:12;;;;;;;6.90;3.45;;;2.70;99.90;;;;;;10222138;28;20031;-64
2023/01/22 18:56:04;;;;;;;5.82;3.67;;;2.60;99.90;;;;;;10207163;28;20090;-64
2023/01/22 19:00:57;;;;;;;7.68;3.78;;;2.60;99.90;;;;;;10197915;28;20106;-65
2023/01/22 19:05:48;;;;;;;3.60;2.83;;;2.60;99.90;;;;;;10183714;28;20043;-69
2023/01/22 19:10:39;;;;;;;7.70;3.95;;;2.60;99.90;;;;;;10197941;28;20020;-67
2023/01/22 19:15:32;;;;;;;68.22;30.90;;;2.70;99.90;;;;;;10193156;28;20027;-61
2023/01/22 19:20:22;;;;;;;97.47;41.45;;;2.90;99.90;;;;;;10198335;28;20059;-61
2023/01/22 19:25:13;;;;;;;22.80;12.18;;;3.00;99.90;;;;;;10192633;28;20035;-73
2023/01/22 19:30:06;;;;;;;16.60;7.13;;;3.00;99.90;;;;;;10197201;28;20058;-75
2023/01/22 19:34:56;;;;;;;11.77;6.78;;;2.80;99.90;;;;;;10199653;28;20020;-71
2023/01/22 19:39:47;;;;;;;9.32;5.35;;;2.70;99.90;;;;;;10208056;28;20069;-64
2023/01/22 19:44:38;;;;;;;8.75;4.60;;;2.70;99.90;;;;;;10202467;28;20127;-65
2023/01/22 19:49:29;;;;;;;7.22;4.00;;;2.70;99.90;;;;;;10199281;28;20035;-64
2023/01/22 19:54:21;;;;;;;5.90;3.95;;;2.70;99.90;;;;;;10195475;28;20043;-66
2023/01/22 19:59:14;;;;;;;7.53;3.75;;;2.70;99.90;;;;;;10196722;28;20035;-64
2023/01/22 20:04:13;;;;;;;5.15;3.03;;;2.70;99.90;;;;;;10196121;28;20035;-65
2023/01/22 20:09:04;;;;;;;6.75;3.60;;;2.70;99.90;;;;;;10208196;28;20028;-65
2023/01/22 20:13:54;;;;;;;8.50;4.80;;;2.70;99.90;;;;;;10196520;28;20100;-65
2023/01/22 20:18:46;;;;;;;5.63;3.90;;;2.80;99.90;;;;;;10187219;28;20028;-66
2023/01/22 20:23:37;;;;;;;6.13;3.25;;;2.90;99.90;;;;;;10196974;28;20062;-65
2023/01/22 20:28:27;;;;;;;5.72;3.08;;;2.80;99.90;;;;;;10187982;28;20126;-65
2023/01/22 20:33:18;;;;;;;6.45;3.17;;;2.70;99.90;;;;;;10182279;28;20043;-65
2023/01/22 20:38:09;;;;;;;7.25;3.88;;;2.60;99.90;;;;;;10184919;28;20103;-65
2023/01/22 20:43:00;;;;;;;6.72;3.33;;;2.70;99.90;;;;;;10181136;28;20054;-65
2023/01/22 20:47:50;;;;;;;5.57;3.45;;;2.60;99.90;;;;;;10194025;28;20047;-65
2023/01/22 20:52:41;;;;;;;5.93;3.50;;;2.60;99.90;;;;;;10188087;28;20515;-64
2023/01/22 20:57:32;;;;;;;4.60;3.05;;;2.70;99.90;;;;;;10183350;28;20051;-64
2023/01/22 21:02:22;;;;;;;5.30;3.00;;;2.70;99.90;;;;;;10178058;28;20052;-66
2023/01/22 21:07:13;;;;;;;6.35;3.25;;;2.70;99.90;;;;;;10176826;28;20061;-65
2023/01/22 21:12:04;;;;;;;4.97;3.47;;;2.70;99.90;;;;;;10183361;28;20024;-68
2023/01/22 21:16:55;;;;;;;49.78;24.35;;;2.70;99.90;;;;;;10173368;28;20089;-62
2023/01/22 21:21:46;;;;;;;93.00;38.03;;;2.90;99.90;;;;;;10188926;28;20515;-59
2023/01/22 21:26:38;;;;;;;24.48;13.63;;;3.10;99.90;;;;;;10193856;28;20039;-69
2023/01/22 21:31:29;;;;;;;19.58;8.23;;;3.20;99.90;;;;;;10175591;28;20051;-67
2023/01/22 21:36:21;;;;;;;13.43;7.22;;;3.00;99.90;;;;;;10184118;28;20024;-73
2023/01/22 21:41:14;;;;;;;10.07;5.25;;;2.80;99.90;;;;;;10181714;28;20443;-73
2023/01/22 21:46:26;;;;;;;10.30;4.80;;;2.80;99.90;;;;;;10187901;28;20285;-71
2023/01/22 21:51:16;;;;;;;7.90;4.68;;;2.70;99.90;;;;;;10194907;28;20445;-68
2023/01/22 21:56:07;;;;;;;6.32;3.95;;;2.80;99.90;;;;;;10182755;28;20039;-70
2023/01/22 22:01:05;;;;;;;8.45;3.95;;;2.70;99.90;;;;;;10178789;28;20107;-69
2023/01/22 22:05:58;;;;;;;10.90;5.70;;;2.80;99.90;;;;;;10189301;28;20307;-71
2023/01/22 22:10:49;;;;;;;7.97;4.35;;;2.70;99.90;;;;;;10199680;28;20020;-68
2023/01/22 22:15:40;;;;;;;9.20;3.85;;;2.70;99.90;;;;;;10202461;28;20030;-70
2023/01/22 22:20:32;;;;;;;7.90;3.88;;;2.70;99.90;;;;;;10198947;28;20035;-68
2023/01/22 22:25:53;;;;;;;6.07;3.47;;;2.70;99.90;;;;;;10192444;28;20024;-74
2023/01/22 22:30:43;;;;;;;8.30;3.97;;;2.70;99.90;;;;;;10184149;28;20054;-75
2023/01/22 22:35:34;;;;;;;6.97;3.72;;;2.70;99.90;;;;;;10187804;28;20084;-74
2023/01/22 22:40:25;;;;;;;7.45;3.67;;;2.70;99.90;;;;;;10192963;28;20051;-72
2023/01/22 22:45:16;;;;;;;5.05;3.28;;;2.70;99.90;;;;;;10194171;28;20056;-72
2023/01/22 22:50:09;;;;;;;6.30;3.38;;;2.70;99.90;;;;;;10192212;28;20099;-71
2023/01/22 22:54:59;;;;;;;5.95;3.88;;;2.60;99.90;;;;;;10187822;28;20433;-70
2023/01/22 22:59:50;;;;;;;8.93;4.05;;;2.60;99.90;;;;;;10180387;28;20107;-70
2023/01/22 23:04:41;;;;;;;5.38;3.67;;;2.60;99.90;;;;;;10193022;28;20492;-71
2023/01/22 23:09:31;;;;;;;6.47;3.70;;;2.50;99.90;;;;;;10193655;28;20430;-69
2023/01/22 23:14:22;;;;;;;8.73;4.18;;;2.60;99.90;;;;;;10206862;28;20504;-72
2023/01/22 23:19:24;;;;;;;6.03;3.65;;;2.50;99.90;;;;;;10193589;28;20244;-71
2023/01/22 23:24:15;;;;;;;5.22;3.67;;;2.60;99.90;;;;;;10195596;28;20109;-71
2023/01/22 23:29:08;;;;;;;10.55;4.68;;;2.50;99.90;;;;;;10190887;28;20046;-71
2023/01/22 23:34:01;;;;;;;7.93;4.72;;;2.50;99.90;;;;;;10208241;28;20070;-68
2023/01/22 23:38:52;;;;;;;7.93;4.30;;;2.40;99.90;;;;;;10216713;28;20020;-70
2023/01/22 23:43:44;;;;;;;5.95;3.53;;;2.40;99.90;;;;;;10200998;28;20084;-72
2023/01/22 23:48:35;;;;;;;10.15;4.57;;;2.40;99.90;;;;;;10200437;28;20055;-71
2023/01/22 23:53:26;;;;;;;8.63;4.13;;;2.40;99.90;;;;;;10190902;28;20031;-74
2023/01/22 23:58:17;;;;;;;8.07;3.65;;;2.30;99.90;;;;;;10193099;28;20085;-74
